Time;durP1;ratioP1;P1;durP2;ratioP2;P2;SDS_P1;SDS_P2;PMS_P1;PMS_P2;Temp;Humidity;BMP_temperature;BMP_pressure;BME280_temperature;BME280_humidity;BME280_pressure;Samples;Min_cycle;Max_cycle;Signal;HPM_P1;HPM_P2
2021/01/03 00:01:07;;;;;;;171.50;130.00;;;19.70;44.70;;;;;;4797621;54;21090;-29
2021/01/03 00:06:12;;;;;;;166.18;132.02;;;19.70;45.30;;;;;;4834905;54;21040;-30
2021/01/03 00:11:13;;;;;;;159.40;127.28;;;19.70;44.70;;;;;;4804368;54;21043;-22
2021/01/03 00:16:13;;;;;;;160.07;125.07;;;19.70;44.60;;;;;;4817204;54;21019;-25
2021/01/03 00:21:15;;;;;;;158.60;125.18;;;19.70;44.70;;;;;;4794707;58;21441;-25
2021/01/03 00:26:16;;;;;;;161.25;126.80;;;19.70;44.50;;;;;;4906538;54;20994;-19
2021/01/03 00:31:16;;;;;;;163.40;126.85;;;19.70;44.60;;;;;;4795230;55;21616;-25
2021/01/03 00:36:18;;;;;;;160.45;124.25;;;19.70;44.50;;;;;;4794335;54;21027;-23
2021/01/03 00:41:19;;;;;;;157.32;124.43;;;19.70;44.50;;;;;;4834818;54;21043;-24
2021/01/03 00:46:19;;;;;;;160.95;123.62;;;19.70;44.40;;;;;;4818733;54;22045;-26
2021/01/03 00:51:20;;;;;;;157.43;123.43;;;19.70;44.50;;;;;;4812153;54;20995;-29
2021/01/03 00:56:23;;;;;;;155.52;123.60;;;19.70;44.40;;;;;;4794783;58;21095;-28
2021/01/03 01:01:25;;;;;;;159.70;125.45;;;19.70;44.40;;;;;;4799536;54;20995;-26
2021/01/03 01:06:25;;;;;;;159.27;123.07;;;19.70;44.40;;;;;;4833943;54;21035;-30
2021/01/03 01:11:29;;;;;;;155.65;121.47;;;19.70;44.40;;;;;;4824718;54;21457;-26
2021/01/03 01:16:29;;;;;;;155.63;121.22;;;19.70;44.40;;;;;;4795397;54;21075;-25
2021/01/03 01:21:31;;;;;;;149.75;117.55;;;19.70;44.40;;;;;;4796991;54;21065;-28
2021/01/03 01:26:32;;;;;;;154.90;121.15;;;19.70;44.40;;;;;;4843685;54;21087;-30
2021/01/03 01:31:32;;;;;;;152.32;120.18;;;19.70;44.40;;;;;;4859996;54;21489;-30
2021/01/03 01:36:33;;;;;;;152.52;119.07;;;19.70;44.40;;;;;;4796986;54;21023;-31
2021/01/03 01:41:34;;;;;;;147.80;117.50;;;19.70;44.20;;;;;;4822772;54;20999;-27
2021/01/03 01:46:43;;;;;;;145.80;114.65;;;19.70;44.40;;;;;;4814797;54;21051;-25
2021/01/03 01:51:47;;;;;;;144.30;113.60;;;19.70;44.30;;;;;;4811130;54;21003;-29
2021/01/03 02:00:23;;;;;;;141.73;109.97;;;19.70;44.30;;;;;;4828482;54;21015;-24
2021/01/03 02:05:40;;;;;;;142.40;111.20;;;19.70;44.30;;;;;;4801390;54;20995;-23
2021/01/03 02:10:44;;;;;;;139.50;112.47;;;19.70;44.40;;;;;;4824467;54;21003;-28
2021/01/03 02:15:46;;;;;;;138.40;108.28;;;19.70;44.30;;;;;;4803779;54;21039;-26
2021/01/03 02:21:48;;;;;;;139.50;107.45;;;19.70;44.30;;;;;;4796956;54;21669;-30
2021/01/03 02:28:19;;;;;;;135.37;105.28;;;19.70;44.30;;;;;;4864831;54;21019;-22
2021/01/03 02:33:37;;;;;;;137.77;110.00;;;19.70;44.30;;;;;;4825292;54;21126;-22
2021/01/03 02:38:44;;;;;;;133.10;106.25;;;19.70;44.20;;;;;;4815177;54;21023;-27
2021/01/03 02:43:45;;;;;;;132.37;105.22;;;19.70;44.30;;;;;;4863701;54;21803;-27
2021/01/03 02:48:46;;;;;;;134.07;105.10;;;19.70;44.30;;;;;;4808119;54;21118;-30
2021/01/03 02:53:47;;;;;;;129.25;101.62;;;19.70;44.20;;;;;;4813861;54;21031;-26
2021/01/03 02:58:48;;;;;;;127.55;101.57;;;19.70;44.30;;;;;;4808442;54;21941;-27
2021/01/03 03:03:49;;;;;;;123.60;99.35;;;19.70;44.20;;;;;;4795266;58;21106;-28
2021/01/03 03:08:50;;;;;;;124.28;99.13;;;19.70;44.20;;;;;;4855084;54;21525;-27
2021/01/03 03:13:51;;;;;;;124.62;100.47;;;19.70;44.20;;;;;;4794265;58;21023;-22
2021/01/03 03:18:51;;;;;;;124.70;96.75;;;19.70;44.20;;;;;;4800999;54;21478;-28
2021/01/03 03:23:52;;;;;;;121.95;96.50;;;19.70;44.20;;;;;;4817904;54;20995;-27
2021/01/03 03:28:53;;;;;;;118.53;95.18;;;19.70;44.20;;;;;;4795589;55;21542;-21
2021/01/03 03:33:54;;;;;;;121.28;94.72;;;19.70;44.20;;;;;;4794193;58;21015;-20
2021/01/03 03:38:55;;;;;;;116.75;93.18;;;19.70;44.20;;;;;;4799687;54;21499;-25
2021/01/03 03:43:56;;;;;;;114.72;91.10;;;19.70;44.20;;;;;;4839590;54;21111;-29
2021/01/03 03:48:57;;;;;;;114.90;91.00;;;19.70;44.20;;;;;;4867788;54;21482;-21
2021/01/03 03:53:57;;;;;;;112.88;89.87;;;19.70;44.30;;;;;;4794828;58;21022;-23
2021/01/03 03:58:58;;;;;;;108.57;88.65;;;19.70;44.20;;;;;;4804539;54;21000;-21
2021/01/03 04:03:59;;;;;;;110.40;88.93;;;19.70;44.10;;;;;;4807916;54;20971;-20
2021/01/03 04:09:00;;;;;;;106.45;84.60;;;19.70;44.20;;;;;;4794637;58;21281;-26
2021/01/03 04:14:02;;;;;;;106.78;85.15;;;19.70;44.20;;;;;;4803186;54;22205;-26
2021/01/03 04:19:05;;;;;;;107.90;85.65;;;19.70;44.20;;;;;;4808876;54;21122;-24
2021/01/03 04:24:07;;;;;;;104.80;85.20;;;19.70;44.10;;;;;;4816907;54;21541;-19
2021/01/03 04:29:08;;;;;;;101.45;81.90;;;19.70;44.20;;;;;;4832864;54;21497;-23
2021/01/03 04:34:08;;;;;;;101.07;80.80;;;19.70;44.20;;;;;;4794494;58;21038;-29
2021/01/03 04:39:09;;;;;;;99.22;81.32;;;19.70;44.20;;;;;;4888030;54;21514;-25
2021/01/03 04:44:20;;;;;;;98.47;77.97;;;19.70;44.20;;;;;;4804008;54;21462;-31
2021/01/03 04:49:40;;;;;;;100.22;78.40;;;19.70;44.20;;;;;;4801177;54;21066;-28
2021/01/03 04:55:05;;;;;;;94.85;75.95;;;19.70;44.20;;;;;;4839414;54;21055;-23
2021/01/03 05:00:07;;;;;;;91.32;73.45;;;19.70;44.20;;;;;;4794854;58;20999;-22
2021/01/03 05:05:33;;;;;;;95.25;76.45;;;19.70;44.10;;;;;;4813234;54;21539;-27
2021/01/03 05:10:34;;;;;;;93.82;75.32;;;19.70;44.20;;;;;;4815831;54;21489;-26
2021/01/03 05:15:35;;;;;;;91.80;71.82;;;19.70;44.10;;;;;;4883394;54;21054;-21
2021/01/03 05:20:37;;;;;;;89.28;70.85;;;19.70;44.20;;;;;;4820663;54;20999;-20
2021/01/03 05:25:41;;;;;;;88.80;71.10;;;19.70;44.10;;;;;;4865431;54;21031;-31
2021/01/03 05:30:41;;;;;;;86.93;69.05;;;19.70;44.10;;;;;;4813171;54;21018;-25
2021/01/03 05:35:44;;;;;;;84.85;68.43;;;19.70;44.10;;;;;;4808339;54;22009;-27
2021/01/03 05:40:45;;;;;;;87.25;68.37;;;19.70;44.10;;;;;;4817262;54;21043;-31
2021/01/03 05:46:33;;;;;;;83.10;66.60;;;19.70;44.10;;;;;;4806495;54;21548;-31
2021/01/03 05:52:26;;;;;;;81.32;65.10;;;19.70;44.20;;;;;;4817032;54;21401;-26
2021/01/03 05:57:34;;;;;;;81.32;65.25;;;19.70;44.20;;;;;;4799077;54;20975;-25
2021/01/03 06:02:35;;;;;;;77.25;61.70;;;19.70;44.20;;;;;;4803096;54;20979;-21
2021/01/03 06:07:36;;;;;;;78.32;62.92;;;19.70;44.20;;;;;;4820793;54;21516;-28
2021/01/03 06:12:37;;;;;;;75.75;61.55;;;19.70;44.20;;;;;;4871871;54;21115;-20
2021/01/03 06:17:47;;;;;;;76.70;60.65;;;19.70;44.20;;;;;;4836473;54;21542;-21
2021/01/03 06:22:50;;;;;;;75.12;59.90;;;19.70;44.20;;;;;;4831868;54;20987;-24
2021/01/03 06:27:52;;;;;;;76.43;61.47;;;19.70;44.10;;;;;;4795001;58;21593;-22
2021/01/03 06:33:32;;;;;;;73.40;58.78;;;19.70;44.30;;;;;;4810704;54;21055;-28
2021/01/03 06:38:52;;;;;;;75.53;59.78;;;19.70;44.20;;;;;;4822701;54;21042;-26
2021/01/03 06:45:45;;;;;;;71.47;58.72;;;19.70;44.20;;;;;;4799784;54;20995;-22
2021/01/03 06:54:12;;;;;;;69.47;56.25;;;19.70;44.60;;;;;;4834976;54;21019;-27
2021/01/03 06:59:42;;;;;;;73.28;57.83;;;19.70;44.20;;;;;;4798923;54;21023;-27
2021/01/03 07:04:43;;;;;;;67.45;54.10;;;19.70;44.30;;;;;;4813407;54;21035;-27
2021/01/03 07:10:04;;;;;;;70.68;56.28;;;19.70;44.30;;;;;;4945579;54;21030;-27
2021/01/03 07:15:36;;;;;;;65.18;53.92;;;19.70;44.20;;;;;;4821130;54;21050;-27
2021/01/03 07:20:53;;;;;;;65.90;54.95;;;19.70;44.20;;;;;;4844155;54;21055;-28
2021/01/03 07:27:17;;;;;;;66.95;54.38;;;19.70;44.30;;;;;;4834681;54;21063;-22
2021/01/03 07:32:22;;;;;;;65.90;53.67;;;19.70;44.20;;;;;;4826892;54;21190;-31
2021/01/03 07:37:28;;;;;;;64.50;53.08;;;19.70;44.20;;;;;;4822185;54;21042;-31
2021/01/03 07:42:32;;;;;;;63.95;51.45;;;19.70;44.20;;;;;;4836791;54;21054;-29
2021/01/03 07:47:37;;;;;;;63.42;52.40;;;19.70;44.20;;;;;;4823816;54;20975;-27
2021/01/03 07:52:39;;;;;;;65.40;52.45;;;19.70;44.30;;;;;;4854757;54;21019;-22
2021/01/03 07:57:40;;;;;;;64.05;50.67;;;19.70;44.20;;;;;;4794892;58;21505;-28
2021/01/03 08:02:42;;;;;;;67.47;52.85;;;19.70;44.20;;;;;;4801352;54;21066;-24
2021/01/03 08:07:43;;;;;;;62.88;51.85;;;19.70;44.20;;;;;;4859566;54;21003;-20
2021/01/03 08:12:56;;;;;;;64.10;51.83;;;19.70;44.20;;;;;;4844354;54;21548;-25
2021/01/03 08:18:18;;;;;;;63.63;51.92;;;19.70;44.20;;;;;;4806861;54;20995;-29
2021/01/03 08:23:29;;;;;;;66.80;51.75;;;19.70;44.10;;;;;;4798896;54;21007;-31
2021/01/03 08:28:34;;;;;;;65.35;51.72;;;19.70;44.20;;;;;;4808156;54;21038;-28
2021/01/03 08:33:40;;;;;;;65.20;51.97;;;19.70;44.20;;;;;;4795297;58;21042;-28
2021/01/03 08:38:41;;;;;;;65.15;51.95;;;19.70;44.30;;;;;;4845294;54;20984;-20
2021/01/03 08:43:43;;;;;;;67.05;54.30;;;19.70;44.20;;;;;;4814620;54;21557;-21
2021/01/03 08:48:56;;;;;;;64.90;51.55;;;19.70;44.20;;;;;;4826231;54;21035;-20
2021/01/03 08:54:02;;;;;;;64.93;51.13;;;19.70;44.20;;;;;;4825575;54;21537;-32
2021/01/03 08:59:03;;;;;;;67.20;54.50;;;19.70;44.20;;;;;;4801547;54;21062;-22
2021/01/03 09:04:07;;;;;;;65.35;52.08;;;19.70;44.30;;;;;;4891729;54;21070;-19
2021/01/03 09:09:17;;;;;;;69.45;56.28;;;19.70;44.20;;;;;;4815457;54;21218;-25
2021/01/03 09:14:48;;;;;;;67.90;54.45;;;19.70;44.20;;;;;;4811735;54;21134;-27
2021/01/03 09:20:49;;;;;;;69.25;55.40;;;19.70;44.30;;;;;;4895374;54;20983;-26
2021/01/03 09:25:56;;;;;;;67.82;54.70;;;19.70;44.30;;;;;;4804173;54;21004;-23
2021/01/03 09:38:07;;;;;;;71.77;55.83;;;19.70;44.30;;;;;;4802843;54;20991;-28
2021/01/03 09:46:04;;;;;;;73.57;56.15;;;19.70;44.40;;;;;;4847995;54;20983;-28
2021/01/03 09:52:42;;;;;;;76.18;60.05;;;19.70;44.40;;;;;;4810284;54;21509;-21
2021/01/03 09:58:06;;;;;;;74.00;59.72;;;19.70;44.40;;;;;;4830632;54;21063;-30
2021/01/03 10:03:24;;;;;;;79.07;62.38;;;19.70;44.40;;;;;;4837738;54;20991;-28
2021/01/03 10:08:27;;;;;;;79.10;60.53;;;19.70;44.50;;;;;;4796790;54;21031;-26
2021/01/03 10:13:30;;;;;;;80.93;62.58;;;19.70;44.50;;;;;;4817005;54;21003;-26
2021/01/03 10:18:39;;;;;;;78.32;60.50;;;19.70;44.50;;;;;;4903953;54;21082;-30
2021/01/03 10:23:43;;;;;;;80.80;62.85;;;19.70;44.60;;;;;;4855051;54;20991;-28
2021/01/03 10:28:44;;;;;;;77.95;62.22;;;19.70;44.50;;;;;;4811571;54;21517;-25
2021/01/03 10:33:47;;;;;;;81.78;65.15;;;19.70;44.60;;;;;;4802813;54;21079;-26
2021/01/03 10:38:48;;;;;;;83.87;64.32;;;19.70;44.70;;;;;;4803550;54;21030;-24
2021/01/03 10:43:49;;;;;;;89.00;66.90;;;19.70;44.70;;;;;;4825834;54;21007;-27
2021/01/03 10:48:51;;;;;;;91.72;67.25;;;19.70;44.70;;;;;;4826721;54;21482;-32
2021/01/03 10:53:52;;;;;;;86.00;67.28;;;19.70;44.70;;;;;;4821292;54;21042;-25
2021/01/03 10:58:53;;;;;;;91.10;69.60;;;19.70;44.70;;;;;;4816140;54;21442;-27
2021/01/03 11:03:54;;;;;;;94.10;71.85;;;19.70;44.80;;;;;;4800412;54;21046;-24
2021/01/03 11:08:54;;;;;;;91.87;71.87;;;19.70;44.70;;;;;;4818207;54;21027;-31
2021/01/03 11:13:55;;;;;;;88.15;70.95;;;19.70;44.70;;;;;;4839331;54;21077;-29
2021/01/03 11:18:56;;;;;;;95.95;77.12;;;19.70;45.50;;;;;;4797663;54;21047;-24
2021/01/03 11:23:57;;;;;;;97.53;76.57;;;19.70;44.80;;;;;;4811948;54;21054;-28
2021/01/03 11:28:58;;;;;;;95.43;74.82;;;19.70;44.80;;;;;;4794675;55;21103;-27
2021/01/03 11:33:59;;;;;;;94.05;74.22;;;19.70;44.80;;;;;;4794988;58;21066;-26
2021/01/03 11:39:08;;;;;;;92.60;72.62;;;19.70;44.80;;;;;;4823147;54;21003;-26
2021/01/03 11:44:09;;;;;;;92.03;72.00;;;19.70;44.80;;;;;;4794334;58;21565;-28
2021/01/03 11:49:11;;;;;;;99.07;76.82;;;19.70;44.90;;;;;;4794899;58;20995;-21
2021/01/03 11:54:11;;;;;;;95.95;73.60;;;19.80;44.90;;;;;;4809669;54;21047;-25
2021/01/03 11:59:14;;;;;;;97.32;76.35;;;19.70;44.90;;;;;;4823636;54;21568;-30
2021/01/03 12:04:15;;;;;;;96.90;75.57;;;19.70;45.00;;;;;;4871116;54;21063;-29
2021/01/03 12:09:16;;;;;;;99.18;78.37;;;19.70;45.00;;;;;;4866578;54;21814;-27
2021/01/03 12:14:17;;;;;;;97.97;76.82;;;19.70;45.00;;;;;;4804670;54;21011;-27
2021/01/03 12:19:18;;;;;;;99.55;78.82;;;19.70;45.10;;;;;;4796336;54;20991;-27
2021/01/03 12:24:19;;;;;;;108.60;84.03;;;19.70;45.10;;;;;;4801728;54;21076;-29
2021/01/03 12:29:25;;;;;;;109.25;85.10;;;19.80;45.10;;;;;;4808789;54;21525;-24
2021/01/03 12:34:27;;;;;;;104.03;81.85;;;19.70;45.10;;;;;;4810190;54;21633;-27
2021/01/03 12:39:28;;;;;;;110.50;86.47;;;19.70;45.10;;;;;;4837071;54;21015;-29
2021/01/03 12:44:29;;;;;;;108.95;87.30;;;19.70;45.20;;;;;;4824222;54;21015;-29
2021/01/03 12:49:31;;;;;;;110.45;88.18;;;19.70;45.20;;;;;;4800269;54;21549;-22
2021/01/03 12:54:32;;;;;;;107.03;83.43;;;19.70;45.20;;;;;;4801271;54;21117;-30
2021/01/03 12:59:33;;;;;;;106.95;82.78;;;19.70;45.20;;;;;;4795668;58;21024;-27
2021/01/03 13:04:34;;;;;;;112.97;89.10;;;19.80;45.30;;;;;;4812844;54;21023;-28
2021/01/03 13:09:35;;;;;;;117.18;94.43;;;19.80;45.30;;;;;;4803163;54;21070;-23
2021/01/03 13:14:36;;;;;;;109.40;88.40;;;19.70;45.40;;;;;;4794896;55;21066;-31
2021/01/03 13:19:37;;;;;;;115.95;94.13;;;19.70;45.30;;;;;;4795870;56;20999;-30
2021/01/03 13:24:37;;;;;;;111.37;90.15;;;19.80;45.40;;;;;;4796329;54;21002;-32
2021/01/03 13:29:38;;;;;;;119.18;94.43;;;19.70;45.30;;;;;;4797310;54;20992;-29
2021/01/03 13:34:39;;;;;;;120.85;95.75;;;19.70;45.40;;;;;;4815236;54;21466;-30
2021/01/03 13:39:40;;;;;;;123.90;97.70;;;19.70;45.40;;;;;;4795475;58;20998;-31
2021/01/03 13:44:41;;;;;;;119.65;96.03;;;19.70;45.40;;;;;;4852363;54;21071;-31
2021/01/03 13:49:41;;;;;;;117.97;94.35;;;19.70;45.40;;;;;;4842567;54;21015;-25
2021/01/03 13:54:42;;;;;;;119.47;97.18;;;19.80;45.40;;;;;;4795099;58;21016;-24
2021/01/03 13:59:44;;;;;;;127.05;99.35;;;19.70;45.40;;;;;;4803834;54;21501;-20
2021/01/03 14:04:44;;;;;;;117.53;97.28;;;19.80;45.40;;;;;;4804271;54;21019;-25
2021/01/03 14:09:45;;;;;;;122.25;99.28;;;19.70;45.40;;;;;;4840200;54;21803;-22
2021/01/03 14:14:46;;;;;;;126.07;99.32;;;19.70;45.40;;;;;;4820866;54;20996;-22
2021/01/03 14:19:47;;;;;;;125.05;101.72;;;19.70;45.40;;;;;;4817356;54;21555;-28
2021/01/03 14:24:48;;;;;;;120.72;98.53;;;19.70;45.40;;;;;;4806785;54;21003;-29
2021/01/03 14:29:48;;;;;;;125.07;102.32;;;19.70;45.40;;;;;;4801136;54;21502;-19
2021/01/03 14:34:52;;;;;;;119.78;99.55;;;19.70;45.40;;;;;;4806895;54;21015;-33
2021/01/03 14:40:21;;;;;;;125.97;101.43;;;19.70;45.40;;;;;;4855655;54;21517;-25
2021/01/03 14:45:25;;;;;;;123.43;100.12;;;19.70;45.40;;;;;;4822561;54;21171;-24
2021/01/03 14:51:00;;;;;;;121.35;102.90;;;19.70;45.40;;;;;;4815396;54;21050;-24
2021/01/03 15:00:15;;;;;;;122.37;100.50;;;19.70;45.30;;;;;;4852157;54;21559;-27
2021/01/03 15:06:53;;;;;;;124.33;101.87;;;19.70;45.40;;;;;;4799982;54;21098;-26
2021/01/03 15:12:00;;;;;;;117.62;98.03;;;19.70;45.40;;;;;;4795154;58;21007;-33
2021/01/03 15:17:40;;;;;;;119.67;98.80;;;19.70;45.40;;;;;;4805300;54;21007;-29
2021/01/03 15:22:48;;;;;;;118.00;99.10;;;19.70;45.40;;;;;;4828101;54;20991;-33
2021/01/03 15:27:49;;;;;;;119.85;98.97;;;19.70;45.40;;;;;;4843524;54;21051;-22
2021/01/03 15:32:53;;;;;;;121.57;100.00;;;19.70;45.40;;;;;;4824364;54;21034;-24
2021/01/03 15:37:57;;;;;;;125.20;102.68;;;19.70;45.40;;;;;;4795403;55;21493;-27
2021/01/03 15:43:33;;;;;;;118.30;100.07;;;19.70;45.40;;;;;;4794826;58;21063;-25
2021/01/03 15:48:39;;;;;;;126.37;100.20;;;19.70;45.40;;;;;;4802187;54;21491;-23
2021/01/03 15:53:40;;;;;;;123.07;100.15;;;19.70;45.40;;;;;;4803287;54;21000;-20
2021/01/03 15:58:42;;;;;;;122.43;99.90;;;19.70;45.40;;;;;;4817436;54;21124;-26
2021/01/03 16:03:43;;;;;;;119.40;98.47;;;19.70;45.40;;;;;;4806403;54;21522;-24
2021/01/03 16:08:44;;;;;;;121.20;97.55;;;19.70;45.40;;;;;;4800835;54;21023;-25
2021/01/03 16:13:47;;;;;;;115.85;97.10;;;19.70;45.40;;;;;;4834314;54;20999;-26
2021/01/03 16:18:49;;;;;;;115.43;95.18;;;19.80;45.50;;;;;;4842381;54;21482;-23
2021/01/03 16:24:24;;;;;;;118.85;95.87;;;19.70;45.40;;;;;;4814820;54;20968;-26
2021/01/03 16:29:48;;;;;;;116.43;96.80;;;19.70;45.50;;;;;;4795858;54;21070;-25
2021/01/03 16:35:14;;;;;;;115.30;91.12;;;19.70;45.40;;;;;;4799448;54;21006;-28
2021/01/03 16:40:43;;;;;;;121.62;100.82;;;19.70;45.50;;;;;;4830475;54;20991;-30
2021/01/03 16:45:52;;;;;;;117.47;96.15;;;19.70;45.50;;;;;;4851047;54;21042;-19
2021/01/03 16:51:29;;;;;;;113.95;96.05;;;19.70;45.40;;;;;;4803871;54;21059;-27
2021/01/03 16:57:07;;;;;;;114.43;92.90;;;19.70;45.40;;;;;;4797067;54;21513;-31
2021/01/03 17:02:17;;;;;;;115.70;95.32;;;19.70;45.60;;;;;;4804290;54;21015;-26
2021/01/03 17:07:29;;;;;;;114.28;96.40;;;19.70;45.50;;;;;;4835610;54;21071;-25
2021/01/03 17:12:58;;;;;;;114.00;92.90;;;19.80;45.50;;;;;;4804092;54;21039;-26
2021/01/03 17:18:14;;;;;;;121.30;98.28;;;19.70;45.50;;;;;;4841602;54;21079;-22
2021/01/03 17:26:37;;;;;;;122.28;98.72;;;19.70;45.40;;;;;;4796028;54;21107;-31
2021/01/03 17:34:39;;;;;;;114.20;97.00;;;19.70;45.40;;;;;;4795478;58;21003;-29
2021/01/03 17:39:52;;;;;;;117.30;96.70;;;19.70;45.40;;;;;;4813496;54;22155;-28
2021/01/03 17:44:58;;;;;;;114.62;96.60;;;19.70;45.50;;;;;;4827952;54;21091;-22
2021/01/03 17:50:02;;;;;;;119.82;97.78;;;19.70;45.40;;;;;;4815717;54;21030;-28
2021/01/03 17:55:08;;;;;;;117.10;97.88;;;19.70;45.40;;;;;;4816933;54;21039;-27
2021/01/03 18:00:10;;;;;;;115.05;96.43;;;19.70;45.40;;;;;;4825152;54;21098;-26
2021/01/03 18:05:12;;;;;;;117.22;98.60;;;19.70;45.40;;;;;;4826035;54;21057;-31
2021/01/03 18:10:14;;;;;;;117.37;97.55;;;19.70;45.40;;;;;;4796008;58;21380;-28
2021/01/03 18:15:16;;;;;;;115.60;97.45;;;19.70;45.40;;;;;;4845028;54;20979;-23
2021/01/03 18:20:17;;;;;;;114.82;94.97;;;19.80;46.10;;;;;;4817819;54;21023;-28
2021/01/03 18:25:19;;;;;;;122.15;101.12;;;19.80;45.50;;;;;;4795422;58;20984;-20
2021/01/03 18:30:24;;;;;;;117.97;96.18;;;19.70;45.40;;;;;;4830570;54;21011;-22
2021/01/03 18:35:36;;;;;;;123.15;98.87;;;19.70;45.40;;;;;;4809884;54;21015;-28
2021/01/03 18:40:38;;;;;;;122.53;100.30;;;19.70;45.40;;;;;;4811152;54;21063;-24
2021/01/03 18:45:39;;;;;;;120.78;99.68;;;19.70;45.40;;;;;;4813947;54;21553;-24
2021/01/03 18:50:40;;;;;;;117.13;98.57;;;19.70;45.40;;;;;;4840801;54;21095;-20
2021/01/03 18:55:42;;;;;;;121.43;100.90;;;19.70;45.40;;;;;;4817746;54;21034;-27
2021/01/03 19:00:43;;;;;;;124.03;102.78;;;19.70;45.40;;;;;;4894792;54;21565;-22
2021/01/03 19:05:45;;;;;;;122.22;102.35;;;19.70;45.40;;;;;;4843197;54;21023;-27
2021/01/03 19:10:50;;;;;;;120.87;101.78;;;19.70;45.40;;;;;;4830231;54;20987;-19
2021/01/03 19:15:51;;;;;;;128.07;103.70;;;19.70;45.40;;;;;;4812414;54;21047;-30
2021/01/03 19:20:51;;;;;;;124.53;104.28;;;19.70;45.30;;;;;;4809818;54;21512;-24
2021/01/03 19:25:54;;;;;;;123.80;103.10;;;19.70;45.30;;;;;;4816226;54;21062;-29
2021/01/03 19:30:56;;;;;;;123.28;102.30;;;19.70;45.40;;;;;;4796210;54;21058;-22
2021/01/03 19:35:57;;;;;;;123.15;102.68;;;19.70;45.40;;;;;;4812077;54;20991;-28
2021/01/03 19:40:57;;;;;;;125.50;104.70;;;19.70;45.50;;;;;;4808167;54;20999;-19
2021/01/03 19:46:00;;;;;;;126.03;106.35;;;19.70;45.30;;;;;;4809047;54;21582;-29
2021/01/03 19:51:01;;;;;;;130.98;106.90;;;19.70;45.40;;;;;;4796503;58;21063;-25
2021/01/03 19:56:04;;;;;;;133.07;109.57;;;19.70;45.40;;;;;;4801684;54;21031;-23
2021/01/03 20:01:05;;;;;;;131.60;108.32;;;19.70;45.40;;;;;;4823327;54;21047;-21
2021/01/03 20:06:09;;;;;;;128.00;105.68;;;19.70;45.40;;;;;;4804172;54;21533;-30
2021/01/03 20:11:16;;;;;;;132.48;109.18;;;19.70;45.40;;;;;;4797831;54;21003;-29
2021/01/03 20:16:47;;;;;;;130.80;109.78;;;19.70;45.40;;;;;;4805962;54;21030;-29
2021/01/03 20:21:57;;;;;;;125.22;105.28;;;19.70;45.40;;;;;;4797431;54;21019;-25
2021/01/03 20:27:05;;;;;;;134.52;113.37;;;19.70;45.30;;;;;;4795307;58;20995;-31
2021/01/03 20:32:08;;;;;;;133.77;112.07;;;19.70;45.30;;;;;;4818538;54;22310;-23
2021/01/03 20:37:09;;;;;;;131.52;110.15;;;19.70;45.20;;;;;;4815699;54;21058;-30
2021/01/03 20:42:14;;;;;;;136.02;113.50;;;19.70;45.30;;;;;;4808990;54;21015;-27
2021/01/03 20:47:20;;;;;;;134.15;110.97;;;19.70;45.20;;;;;;4814014;54;21083;-29
2021/01/03 20:52:22;;;;;;;134.05;111.35;;;19.70;45.20;;;;;;4827750;54;21014;-22
2021/01/03 20:57:22;;;;;;;139.40;116.47;;;19.70;45.20;;;;;;4861459;54;21047;-25
2021/01/03 21:02:23;;;;;;;137.73;113.95;;;19.70;45.20;;;;;;4801136;54;21067;-25
2021/01/03 21:07:24;;;;;;;134.68;112.00;;;19.70;45.20;;;;;;4800096;54;21039;-21
2021/01/03 21:12:25;;;;;;;130.63;109.07;;;19.70;45.20;;;;;;4801211;54;21039;-27
2021/01/03 21:17:27;;;;;;;138.73;111.55;;;19.70;45.20;;;;;;4801460;54;21010;-26
2021/01/03 21:22:30;;;;;;;137.05;112.03;;;19.70;45.20;;;;;;4801138;54;21011;-18
2021/01/03 21:28:07;;;;;;;133.75;110.65;;;19.70;45.20;;;;;;4795618;58;21765;-24
2021/01/03 21:42:55;;;;;;;137.27;112.33;;;19.70;45.50;;;;;;4799526;54;21002;-24
2021/01/03 21:48:21;;;;;;;129.43;108.97;;;19.70;45.20;;;;;;4827173;54;21305;-31
2021/01/03 21:53:59;;;;;;;134.20;112.12;;;19.70;45.10;;;;;;4869279;54;21078;-27
2021/01/03 22:02:17;;;;;;;130.73;108.55;;;19.70;45.20;;;;;;4795202;58;21473;-19
2021/01/03 22:15:01;;;;;;;132.00;109.15;;;19.70;45.00;;;;;;4807127;54;21449;-27
2021/01/03 22:20:39;;;;;;;133.10;108.63;;;19.70;45.00;;;;;;4806826;54;21043;-24
2021/01/03 22:25:43;;;;;;;133.85;110.40;;;19.70;45.70;;;;;;4831196;54;21075;-22
2021/01/03 22:32:16;;;;;;;131.20;109.57;;;19.70;45.00;;;;;;4836426;54;21058;-23
2021/01/03 22:39:31;;;;;;;126.00;103.07;;;19.70;44.90;;;;;;4849409;54;21099;-20
2021/01/03 22:47:27;;;;;;;130.12;107.57;;;19.70;44.90;;;;;;4807306;54;21011;-23
2021/01/03 22:55:23;;;;;;;125.53;104.00;;;19.70;45.60;;;;;;4796482;54;21039;-23
2021/01/03 23:00:49;;;;;;;;;;;19.70;45.00;;;;;;4819257;54;21153;-29
2021/01/03 23:06:27;;;;;;;128.70;107.35;;;19.70;44.80;;;;;;4801181;54;20075;-27
2021/01/03 23:11:35;;;;;;;125.40;104.43;;;19.70;44.80;;;;;;4806266;54;21007;-23
2021/01/03 23:19:36;;;;;;;122.93;101.38;;;19.70;44.80;;;;;;4794236;58;21003;-21
2021/01/03 23:24:40;;;;;;;124.28;102.47;;;19.70;44.70;;;;;;4813984;54;21060;-28
2021/01/03 23:29:42;;;;;;;125.18;103.10;;;19.70;44.70;;;;;;4847464;54;21426;-30
2021/01/03 23:34:51;;;;;;;124.60;102.55;;;19.70;44.70;;;;;;4804701;54;21003;-27
2021/01/03 23:39:59;;;;;;;119.75;99.37;;;19.70;44.70;;;;;;4819980;54;20999;-24
2021/01/03 23:45:12;;;;;;;123.45;100.93;;;19.70;44.80;;;;;;4804381;54;21015;-27
2021/01/03 23:50:34;;;;;;;123.18;102.00;;;19.70;44.70;;;;;;4808260;54;21066;-21
2021/01/03 23:57:46;;;;;;;124.45;101.28;;;19.70;44.60;;;;;;4802996;54;21067;-22
